Time;durP1;ratioP1;P1;durP2;ratioP2;P2;SDS_P1;SDS_P2;PMS_P1;PMS_P2;Temp;Humidity;BMP_temperature;BMP_pressure;BME280_temperature;BME280_humidity;BME280_pressure;Samples;Min_cycle;Max_cycle;Signal;HPM_P1;HPM_P2
2021/12/13 00:00:48;;;;;;;6.07;3.30;;;16.70;91.90;;;;;;1989078;28;20159;-79
2021/12/13 00:02:09;;;;;;;7.00;3.90;;;16.70;92.00;;;;;;1988465;28;20194;-80
2021/12/13 00:03:15;;;;;;;6.20;3.85;;;16.70;92.40;;;;;;1988436;28;20224;-79
2021/12/13 00:04:27;;;;;;;6.10;3.75;;;16.70;93.20;;;;;;1988485;28;20167;-80
2021/12/13 00:05:37;;;;;;;9.73;4.03;;;16.70;94.00;;;;;;1989248;28;20246;-79
2021/12/13 00:06:43;;;;;;;8.15;3.80;;;16.70;94.20;;;;;;1989116;28;20218;-80
2021/12/13 00:07:45;;;;;;;6.43;3.85;;;16.70;93.00;;;;;;1989579;28;20177;-80
2021/12/13 00:08:49;;;;;;;6.75;3.38;;;16.70;92.80;;;;;;1988516;28;20534;-80
2021/12/13 00:09:50;;;;;;;6.32;3.53;;;16.70;93.30;;;;;;1989105;28;20713;-82
2021/12/13 00:11:23;;;;;;;8.10;4.13;;;16.70;94.30;;;;;;1990229;28;20183;-79
2021/12/13 00:12:37;;;;;;;5.20;4.10;;;16.60;94.90;;;;;;1988825;28;20307;-79
2021/12/13 00:13:41;;;;;;;6.47;3.83;;;16.60;93.80;;;;;;1990411;28;20633;-80
2021/12/13 00:14:50;;;;;;;7.20;3.75;;;16.60;93.60;;;;;;1990239;28;20162;-79
2021/12/13 00:15:54;;;;;;;6.53;3.45;;;16.60;92.70;;;;;;1990421;28;20158;-80
2021/12/13 00:17:23;;;;;;;11.10;3.42;;;16.60;92.30;;;;;;1989526;28;20182;-80
2021/12/13 00:18:26;;;;;;;6.65;3.90;;;16.60;92.50;;;;;;1989461;28;20541;-79
2021/12/13 00:19:41;;;;;;;11.05;4.00;;;16.60;92.80;;;;;;1990199;28;20198;-78
2021/12/13 00:20:44;;;;;;;7.70;3.72;;;16.60;92.80;;;;;;1990241;28;20158;-78
2021/12/13 00:22:02;;;;;;;7.50;3.83;;;16.60;93.00;;;;;;1989645;28;20219;-79
2021/12/13 00:23:09;;;;;;;6.50;4.07;;;16.60;92.70;;;;;;1989811;28;20210;-79
2021/12/13 00:24:14;;;;;;;6.60;3.63;;;16.60;93.00;;;;;;1990332;28;20610;-79
2021/12/13 00:25:19;;;;;;;6.65;3.75;;;16.60;92.90;;;;;;1990313;28;20309;-78
2021/12/13 00:26:38;;;;;;;6.78;3.80;;;16.60;92.90;;;;;;1990313;28;20711;-79
2021/12/13 00:27:43;;;;;;;5.88;3.50;;;16.50;92.80;;;;;;1989582;28;20190;-78
2021/12/13 00:28:43;;;;;;;5.60;3.60;;;16.50;93.30;;;;;;1989553;28;20224;-79
2021/12/13 00:30:09;;;;;;;8.02;3.97;;;16.50;93.60;;;;;;1981854;29;20210;-80
2021/12/13 00:31:36;;;;;;;14.77;5.03;;;16.50;95.50;;;;;;1980465;28;20244;-79
2021/12/13 00:32:42;;;;;;;6.97;4.32;;;16.50;94.70;;;;;;1989888;28;20290;-79
2021/12/13 00:33:57;;;;;;;5.90;3.40;;;;;;;;;;1990064;28;20159;-79
2021/12/13 00:34:59;;;;;;;5.43;3.40;;;16.30;97.20;;;;;;1990136;28;20161;-79
2021/12/13 00:36:16;;;;;;;4.70;2.88;;;16.50;97.00;;;;;;1989336;28;20269;-78
2021/12/13 00:37:37;;;;;;;7.25;3.97;;;16.50;97.10;;;;;;1989868;28;20213;-79
2021/12/13 00:38:40;;;;;;;5.82;3.10;;;;;;;;;;1990270;28;20519;-79
2021/12/13 00:39:58;;;;;;;6.70;3.85;;;16.40;97.30;;;;;;1989431;28;20200;-80
2021/12/13 00:41:11;;;;;;;7.38;3.03;;;;;;;;;;1989850;28;20163;-79
2021/12/13 00:42:10;;;;;;;4.97;3.60;;;;;;;;;;1990068;28;20165;-79
2021/12/13 00:43:21;;;;;;;6.27;3.60;;;16.40;98.30;;;;;;1990250;28;20599;-78
2021/12/13 00:44:33;;;;;;;5.28;3.63;;;16.40;98.10;;;;;;1990169;28;20390;-79
2021/12/13 00:45:36;;;;;;;5.60;3.45;;;16.50;97.60;;;;;;1990156;28;20198;-78
2021/12/13 00:46:38;;;;;;;5.30;3.85;;;16.40;97.30;;;;;;1989463;28;20187;-79
2021/12/13 00:47:40;;;;;;;5.88;3.38;;;16.40;97.20;;;;;;1989541;28;20170;-79
2021/12/13 00:48:44;;;;;;;8.18;3.55;;;16.40;96.90;;;;;;1990233;28;20524;-79
2021/12/13 00:49:47;;;;;;;8.00;3.90;;;16.40;96.70;;;;;;1990101;28;20541;-80
2021/12/13 00:51:14;;;;;;;5.47;3.15;;;16.50;96.50;;;;;;1990096;28;20191;-79
2021/12/13 00:52:16;;;;;;;5.20;3.35;;;16.50;96.90;;;;;;1990107;28;20257;-79
2021/12/13 00:53:20;;;;;;;5.63;3.65;;;16.50;97.00;;;;;;1990064;28;20536;-79
2021/12/13 00:54:35;;;;;;;3.92;2.72;;;16.40;97.00;;;;;;1990004;28;20174;-80
2021/12/13 00:55:35;;;;;;;5.03;3.65;;;16.50;96.80;;;;;;1989954;28;20161;-78
2021/12/13 00:57:04;;;;;;;5.30;3.47;;;16.50;97.00;;;;;;1990014;28;20253;-79
2021/12/13 00:58:10;;;;;;;6.50;3.40;;;16.50;97.00;;;;;;1989276;28;20241;-80
2021/12/13 00:59:12;;;;;;;4.63;2.97;;;16.50;96.80;;;;;;1989350;28;20170;-80
2021/12/13 01:00:23;;;;;;;6.15;3.70;;;16.50;97.10;;;;;;1989419;28;20170;-80
2021/12/13 01:01:23;;;;;;;7.72;3.60;;;16.50;97.60;;;;;;1990128;28;20186;-80
2021/12/13 01:02:35;;;;;;;5.88;3.75;;;16.40;94.30;;;;;;1989909;28;20325;-80
2021/12/13 01:03:36;;;;;;;5.25;3.45;;;16.50;94.40;;;;;;1990125;28;20185;-79
2021/12/13 01:04:52;;;;;;;5.95;3.33;;;16.50;94.70;;;;;;1989830;28;20179;-80
2021/12/13 01:06:31;;;;;;;4.05;2.80;;;16.50;94.60;;;;;;1990155;28;20159;-79
2021/12/13 01:07:53;;;;;;;6.63;3.70;;;16.40;94.10;;;;;;1989086;28;20185;-79
2021/12/13 01:09:10;;;;;;;5.45;3.53;;;16.40;93.10;;;;;;1989607;28;20163;-80
2021/12/13 01:10:50;;;;;;;5.53;3.75;;;16.40;93.10;;;;;;1989848;28;20167;-80
2021/12/13 01:11:53;;;;;;;7.97;3.50;;;16.40;93.00;;;;;;1989203;28;20740;-80
2021/12/13 01:12:54;;;;;;;6.07;3.30;;;16.40;93.10;;;;;;1989507;28;20166;-79
2021/12/13 01:14:39;;;;;;;5.07;3.20;;;16.40;93.20;;;;;;1989169;28;20186;-78
2021/12/13 01:16:10;;;;;;;6.00;3.67;;;16.50;93.30;;;;;;1989923;28;20151;-79
2021/12/13 01:17:28;;;;;;;7.82;3.40;;;16.50;93.70;;;;;;1989806;28;20159;-80
2021/12/13 01:20:05;;;;;;;6.30;2.90;;;;;;;;;;1989823;28;20634;-79
2021/12/13 01:21:29;;;;;;;4.93;3.10;;;;;;;;;;1989650;28;20173;-79
2021/12/13 01:22:43;;;;;;;3.75;3.22;;;;;;;;;;1989765;28;20151;-79
2021/12/13 01:23:53;;;;;;;4.68;3.20;;;16.30;96.50;;;;;;1989339;28;20173;-80
2021/12/13 01:26:02;;;;;;;6.95;3.53;;;;;;;;;;1989868;28;20218;-79
2021/12/13 01:27:01;;;;;;;6.18;4.00;;;;;;;;;;1989118;28;20245;-80
2021/12/13 01:28:03;;;;;;;5.82;3.40;;;;;;;;;;1989318;28;20174;-80
2021/12/13 01:29:06;;;;;;;6.25;3.70;;;;;;;;;;1989586;28;20225;-80
2021/12/13 01:30:07;;;;;;;5.55;3.10;;;;;;;;;;1989073;28;20179;-80
2021/12/13 01:31:16;;;;;;;5.60;3.55;;;;;;;;;;1989077;28;20162;-78
2021/12/13 01:32:18;;;;;;;10.45;3.70;;;;;;;;;;1989136;28;20178;-79
2021/12/13 01:33:17;;;;;;;5.22;3.10;;;;;;;;;;1989329;28;20178;-80
2021/12/13 01:34:17;;;;;;;5.03;3.10;;;;;;;;;;1990075;28;20181;-79
2021/12/13 01:35:19;;;;;;;4.38;3.05;;;;;;;;;;1989805;28;20583;-79
2021/12/13 01:36:23;;;;;;;5.35;3.33;;;;;;;;;;1990056;28;20277;-79
2021/12/13 01:37:29;;;;;;;5.80;3.60;;;;;;;;;;1990043;28;20162;-79
2021/12/13 01:38:35;;;;;;;6.85;3.83;;;;;;;;;;1991272;28;20267;-80
2021/12/13 01:39:35;;;;;;;3.55;2.80;;;;;;;;;;1991668;28;20150;-79
2021/12/13 01:40:35;;;;;;;4.50;3.00;;;;;;;;;;1994926;28;20171;-79
2021/12/13 01:41:36;;;;;;;5.95;3.15;;;;;;;;;;1995983;28;20182;-79
2021/12/13 01:42:36;;;;;;;8.38;3.83;;;;;;;;;;1995612;28;20242;-79
2021/12/13 01:43:36;;;;;;;5.35;3.30;;;;;;;;;;1992473;28;20250;-79
2021/12/13 01:44:36;;;;;;;4.10;3.00;;;;;;;;;;1993039;28;20213;-79
2021/12/13 01:45:36;;;;;;;7.55;2.80;;;;;;;;;;1994282;28;20261;-79
2021/12/13 01:46:40;;;;;;;5.65;3.40;;;;;;;;;;1991269;28;20198;-80
2021/12/13 01:47:44;;;;;;;4.80;3.05;;;;;;;;;;1991950;28;20170;-80
2021/12/13 01:48:44;;;;;;;3.65;2.83;;;;;;;;;;1991909;28;20171;-79
2021/12/13 01:49:46;;;;;;;5.22;3.38;;;;;;;;;;1990756;28;20226;-80
2021/12/13 01:50:47;;;;;;;5.25;3.00;;;;;;;;;;1990550;28;20171;-80
2021/12/13 01:51:47;;;;;;;4.38;3.40;;;;;;;;;;1990305;28;20210;-79
2021/12/13 01:52:50;;;;;;;4.82;2.90;;;;;;;;;;1991162;28;20202;-79
2021/12/13 01:53:51;;;;;;;5.50;3.10;;;;;;;;;;1990003;28;20182;-80
2021/12/13 01:54:51;;;;;;;5.60;2.88;;;;;;;;;;1995639;28;20232;-76
2021/12/13 01:55:50;;;;;;;4.07;3.00;;;;;;;;;;1989853;28;20174;-79
2021/12/13 01:57:09;;;;;;;3.53;2.90;;;;;;;;;;1989049;28;20203;-79
2021/12/13 01:58:26;;;;;;;4.68;2.95;;;;;;;;;;1989137;28;20414;-79
2021/12/13 02:01:08;;;;;;;3.50;2.50;;;;;;;;;;1989825;28;20186;-81
2021/12/13 02:02:11;;;;;;;4.90;3.15;;;;;;;;;;1989782;28;20210;-81
2021/12/13 02:03:11;;;;;;;4.55;3.10;;;;;;;;;;1989148;28;20221;-79
2021/12/13 02:04:13;;;;;;;3.83;2.53;;;;;;;;;;1989287;28;20514;-78
2021/12/13 02:05:12;;;;;;;3.92;2.88;;;;;;;;;;1989587;28;20201;-79
2021/12/13 02:06:13;;;;;;;3.80;2.70;;;;;;;;;;1989610;28;20174;-79
2021/12/13 02:07:12;;;;;;;4.35;2.67;;;;;;;;;;1989137;28;20406;-79
2021/12/13 02:08:13;;;;;;;5.43;3.30;;;;;;;;;;1989117;28;20209;-78
2021/12/13 02:09:21;;;;;;;5.60;2.75;;;;;;;;;;1989237;28;20179;-79
2021/12/13 02:10:29;;;;;;;5.78;3.33;;;;;;;;;;1989281;28;20174;-78
2021/12/13 02:11:29;;;;;;;5.25;2.53;;;;;;;;;;1989757;28;20194;-78
2021/12/13 02:12:30;;;;;;;4.30;2.85;;;;;;;;;;1988987;28;20182;-80
2021/12/13 02:13:38;;;;;;;4.63;3.38;;;;;;;;;;1989067;28;20166;-79
2021/12/13 02:14:41;;;;;;;4.35;2.80;;;;;;;;;;1989160;28;20179;-84
2021/12/13 02:17:13;;;;;;;4.53;2.78;;;;;;;;;;1989550;28;20159;-78
2021/12/13 02:18:13;;;;;;;3.42;2.42;;;;;;;;;;1989699;28;20637;-81
2021/12/13 02:19:20;;;;;;;3.90;2.35;;;;;;;;;;1989616;28;20706;-78
2021/12/13 02:20:23;;;;;;;3.10;2.50;;;;;;;;;;1989600;28;20521;-79
2021/12/13 02:21:29;;;;;;;4.55;2.70;;;;;;;;;;1989500;28;20517;-79
2021/12/13 02:22:28;;;;;;;6.60;2.97;;;;;;;;;;1989439;28;20147;-79
2021/12/13 02:23:27;;;;;;;3.30;2.73;;;;;;;;;;1989373;28;20518;-78
2021/12/13 02:24:27;;;;;;;3.67;2.75;;;;;;;;;;1989367;28;20497;-80
2021/12/13 02:25:30;;;;;;;4.35;2.90;;;;;;;;;;1988642;28;20658;-79
2021/12/13 02:26:32;;;;;;;3.70;2.65;;;;;;;;;;1988474;28;20257;-78
2021/12/13 02:27:33;;;;;;;5.85;3.80;;;;;;;;;;1988816;28;20175;-79
2021/12/13 02:28:34;;;;;;;4.60;2.70;;;;;;;;;;1989103;28;20297;-79
2021/12/13 02:29:38;;;;;;;4.63;3.25;;;;;;;;;;1989065;28;20626;-79
2021/12/13 02:30:45;;;;;;;4.65;3.13;;;;;;;;;;1988621;28;20223;-80
2021/12/13 02:31:45;;;;;;;3.50;2.65;;;;;;;;;;1988624;28;20277;-79
2021/12/13 02:32:44;;;;;;;3.58;2.60;;;;;;;;;;1988767;28;20529;-78
2021/12/13 02:34:10;;;;;;;3.78;3.13;;;;;;;;;;1989338;28;20217;-79
2021/12/13 02:35:10;;;;;;;4.55;2.85;;;;;;;;;;1988188;28;20187;-79
2021/12/13 02:36:10;;;;;;;3.35;2.20;;;;;;;;;;1989157;28;20183;-78
2021/12/13 02:37:11;;;;;;;5.55;2.67;;;;;;;;;;1988419;28;20236;-78
2021/12/13 02:38:12;;;;;;;3.40;2.83;;;;;;;;;;1988746;28;20179;-81
2021/12/13 02:39:16;;;;;;;5.07;2.97;;;;;;;;;;1989359;28;20178;-79
2021/12/13 02:40:17;;;;;;;3.30;2.47;;;;;;;;;;1988509;28;20227;-79
2021/12/13 02:41:20;;;;;;;3.13;2.38;;;;;;;;;;1988578;28;20532;-80
2021/12/13 02:42:19;;;;;;;9.00;2.53;;;;;;;;;;1989139;28;20183;-80
2021/12/13 02:43:20;;;;;;;5.17;2.83;;;;;;;;;;1989204;28;20181;-79
2021/12/13 02:44:24;;;;;;;4.88;3.00;;;;;;;;;;1989381;28;20605;-80
2021/12/13 02:45:28;;;;;;;3.90;2.03;;;;;;;;;;1989245;28;20198;-79
2021/12/13 02:46:27;;;;;;;4.68;2.85;;;;;;;;;;1988478;28;20194;-79
2021/12/13 02:47:35;;;;;;;4.13;2.65;;;;;;;;;;1988696;28;20175;-79
2021/12/13 02:48:34;;;;;;;3.80;2.50;;;;;;;;;;1989196;28;20200;-80
2021/12/13 02:49:33;;;;;;;3.00;2.40;;;;;;;;;;1989263;28;20175;-79
2021/12/13 02:50:35;;;;;;;4.68;2.67;;;;;;;;;;1989260;28;20767;-79
2021/12/13 02:51:45;;;;;;;4.05;2.53;;;;;;;;;;1988406;28;20249;-79
2021/12/13 02:52:47;;;;;;;3.78;2.85;;;;;;;;;;1988507;28;20171;-79
2021/12/13 02:53:53;;;;;;;3.90;2.75;;;;;;;;;;1988284;28;20179;-79
2021/12/13 02:54:57;;;;;;;3.22;2.50;;;;;;;;;;1988458;28;20185;-79
2021/12/13 02:55:58;;;;;;;5.07;3.13;;;;;;;;;;1988450;28;20282;-80
2021/12/13 02:57:03;;;;;;;5.65;2.33;;;;;;;;;;1988426;28;20201;-79
2021/12/13 02:58:07;;;;;;;4.10;2.92;;;;;;;;;;1988586;28;20170;-80
2021/12/13 02:59:11;;;;;;;4.25;2.55;;;;;;;;;;1989134;28;20237;-80
2021/12/13 03:00:11;;;;;;;3.40;2.90;;;;;;;;;;1989168;28;20532;-80
2021/12/13 03:01:28;;;;;;;3.47;2.65;;;;;;;;;;1989134;28;20229;-80
2021/12/13 03:02:31;;;;;;;4.93;2.60;;;;;;;;;;1989094;28;20155;-79
2021/12/13 03:03:32;;;;;;;3.47;2.47;;;;;;;;;;1989141;28;20587;-78
2021/12/13 03:04:31;;;;;;;4.05;2.60;;;;;;;;;;1989198;28;20171;-79
2021/12/13 03:05:32;;;;;;;4.97;2.45;;;;;;;;;;1988962;28;20170;-79
2021/12/13 03:06:35;;;;;;;3.05;2.33;;;;;;;;;;1988920;28;20197;-78
2021/12/13 03:07:35;;;;;;;3.67;2.83;;;;;;;;;;1989220;28;20194;-79
2021/12/13 03:08:58;;;;;;;3.53;2.60;;;;;;;;;;1989097;28;20177;-81
2021/12/13 03:09:58;;;;;;;4.97;3.15;;;;;;;;;;1989090;28;20178;-80
2021/12/13 03:10:59;;;;;;;3.95;2.65;;;;;;;;;;1989221;28;20206;-81
2021/12/13 03:11:59;;;;;;;3.33;2.17;;;;;;;;;;1989109;28;20205;-80
2021/12/13 03:12:58;;;;;;;4.57;2.65;;;;;;;;;;1988353;28;20182;-80
2021/12/13 03:13:59;;;;;;;3.85;2.42;;;;;;;;;;1988387;28;20261;-80
2021/12/13 03:15:00;;;;;;;3.30;2.42;;;;;;;;;;1988469;28;20265;-80
2021/12/13 03:16:19;;;;;;;2.88;2.38;;;;;;;;;;1988286;28;20393;-80
2021/12/13 03:17:23;;;;;;;3.70;2.33;;;;;;;;;;1988639;28;20514;-80
2021/12/13 03:18:42;;;;;;;2.70;2.20;;;;;;;;;;1988861;28;20765;-78
2021/12/13 03:19:41;;;;;;;2.92;2.28;;;;;;;;;;1988103;28;20561;-79
2021/12/13 03:20:58;;;;;;;4.27;2.37;;;;;;;;;;1988455;28;20177;-80
2021/12/13 03:22:16;;;;;;;3.40;2.17;;;;;;;;;;1989119;28;20482;-79
2021/12/13 03:23:34;;;;;;;3.88;2.17;;;;;;;;;;1989241;28;20327;-80
2021/12/13 03:24:36;;;;;;;6.78;3.25;;;;;;;;;;1989098;28;20166;-79
2021/12/13 03:25:40;;;;;;;3.60;2.80;;;;;;;;;;1988357;28;20245;-80
2021/12/13 03:26:53;;;;;;;4.15;2.47;;;;;;;;;;1988359;28;20198;-79
2021/12/13 03:28:11;;;;;;;3.75;2.15;;;;;;;;;;1988344;28;20179;-78
2021/12/13 03:29:12;;;;;;;4.40;2.53;;;;;;;;;;1988406;28;20204;-79
2021/12/13 03:30:13;;;;;;;3.95;2.70;;;;;;;;;;1988293;28;20305;-79
2021/12/13 03:31:14;;;;;;;3.78;2.17;;;;;;;;;;1988937;28;20226;-79
2021/12/13 03:32:14;;;;;;;3.85;2.45;;;;;;;;;;1988311;28;20298;-79
2021/12/13 03:33:14;;;;;;;3.70;2.55;;;;;;;;;;1988235;28;20175;-80
2021/12/13 03:34:18;;;;;;;5.13;2.80;;;;;;;;;;1988632;28;20201;-79
2021/12/13 03:35:19;;;;;;;7.03;2.83;;;;;;;;;;1989070;28;20177;-79
2021/12/13 03:36:20;;;;;;;3.15;2.40;;;;;;;;;;1989028;28;20741;-79
2021/12/13 03:37:24;;;;;;;4.88;3.10;;;;;;;;;;1988903;28;20170;-79
2021/12/13 03:38:26;;;;;;;2.83;1.95;;;;;;;;;;1989101;28;20238;-79
2021/12/13 03:39:34;;;;;;;4.65;3.25;;;;;;;;;;1988957;28;20198;-78
2021/12/13 03:40:34;;;;;;;2.92;2.08;;;;;;;;;;1988888;28;20171;-79
2021/12/13 03:41:36;;;;;;;3.92;2.58;;;;;;;;;;1989118;28;20217;-79
2021/12/13 03:42:38;;;;;;;2.67;2.03;;;;;;;;;;1988752;28;20174;-79
2021/12/13 03:43:39;;;;;;;3.83;2.20;;;;;;;;;;1989279;28;20178;-80
2021/12/13 03:44:40;;;;;;;2.97;2.20;;;;;;;;;;1990603;28;20506;-79
2021/12/13 03:45:42;;;;;;;5.07;2.70;;;;;;;;;;1990555;28;20649;-79
2021/12/13 03:46:42;;;;;;;5.03;2.70;;;;;;;;;;1990641;28;20204;-80
2021/12/13 03:47:44;;;;;;;4.93;2.53;;;;;;;;;;1990613;28;20171;-80
2021/12/13 03:48:44;;;;;;;3.30;2.38;;;;;;;;;;1989886;28;20262;-80
2021/12/13 03:49:45;;;;;;;4.78;2.65;;;;;;;;;;1990048;28;20197;-80
2021/12/13 03:50:47;;;;;;;3.58;3.03;;;;;;;;;;1990589;28;20179;-80
2021/12/13 03:51:46;;;;;;;3.83;2.75;;;;;;;;;;1989786;28;20569;-79
2021/12/13 03:52:46;;;;;;;4.40;2.03;;;;;;;;;;1990209;28;20227;-80
2021/12/13 03:53:47;;;;;;;3.28;2.35;;;;;;;;;;1990539;28;20236;-80
2021/12/13 03:54:46;;;;;;;4.50;3.15;;;;;;;;;;1990390;28;20178;-79
2021/12/13 03:55:48;;;;;;;2.60;2.13;;;;;;;;;;1990511;28;20209;-80
2021/12/13 03:56:51;;;;;;;3.90;2.53;;;;;;;;;;1989804;28;20252;-80
2021/12/13 03:57:53;;;;;;;4.07;2.45;;;;;;;;;;1990206;28;20673;-80
2021/12/13 03:58:55;;;;;;;5.00;2.70;;;;;;;;;;1989809;28;20262;-79
2021/12/13 03:59:54;;;;;;;3.42;2.90;;;;;;;;;;1989883;28;20178;-79
2021/12/13 04:00:58;;;;;;;3.90;2.50;;;;;;;;;;1990022;28;20182;-79
2021/12/13 04:01:59;;;;;;;4.35;2.38;;;;;;;;;;1990584;28;20391;-79
2021/12/13 04:02:59;;;;;;;4.50;3.03;;;;;;;;;;1990670;28;20189;-78
2021/12/13 04:03:59;;;;;;;3.97;2.75;;;;;;;;;;1989730;28;20626;-79
2021/12/13 04:05:00;;;;;;;4.43;3.15;;;;;;;;;;1989682;28;20302;-79
2021/12/13 04:05:59;;;;;;;3.08;2.60;;;;;;;;;;1989689;28;20630;-79
2021/12/13 04:07:06;;;;;;;4.15;2.90;;;;;;;;;;1989645;28;20190;-80
2021/12/13 04:08:07;;;;;;;4.10;2.83;;;;;;;;;;1990157;28;20171;-79
2021/12/13 04:09:06;;;;;;;3.95;2.88;;;16.10;98.40;;;;;;1990474;28;20176;-80
2021/12/13 04:10:18;;;;;;;5.47;3.13;;;16.40;96.60;;;;;;1990432;28;20215;-80
2021/12/13 04:11:17;;;;;;;3.20;2.20;;;16.40;96.30;;;;;;1990445;28;20673;-80
2021/12/13 04:12:17;;;;;;;3.80;2.30;;;16.40;96.20;;;;;;1990385;28;20811;-80
2021/12/13 04:13:20;;;;;;;5.00;2.72;;;16.40;96.20;;;;;;1990366;28;20170;-80
2021/12/13 04:14:26;;;;;;;3.90;2.90;;;16.40;96.10;;;;;;1989704;28;20306;-80
2021/12/13 04:15:49;;;;;;;3.88;2.42;;;16.30;96.00;;;;;;1989673;28;20186;-80
2021/12/13 04:17:37;;;;;;;4.82;2.60;;;16.40;95.90;;;;;;1989811;28;20186;-79
2021/12/13 04:19:47;;;;;;;5.38;3.38;;;16.30;95.60;;;;;;1989837;28;20167;-80
2021/12/13 04:20:46;;;;;;;4.70;3.25;;;16.30;95.60;;;;;;1989724;28;20357;-80
2021/12/13 04:21:50;;;;;;;4.90;2.70;;;16.30;95.50;;;;;;1989873;28;20708;-80
2021/12/13 04:22:53;;;;;;;3.70;2.60;;;16.30;95.50;;;;;;1990297;28;20182;-79
2021/12/13 04:23:57;;;;;;;4.55;2.63;;;16.30;95.50;;;;;;1990435;28;20254;-80
2021/12/13 04:25:06;;;;;;;4.57;3.15;;;16.50;95.50;;;;;;1990462;28;20613;-80
2021/12/13 04:26:10;;;;;;;5.25;3.42;;;16.40;95.50;;;;;;1990337;28;20539;-79
2021/12/13 04:27:20;;;;;;;4.22;2.90;;;16.40;95.50;;;;;;1990507;28;20521;-79
2021/12/13 04:28:23;;;;;;;5.60;2.92;;;16.30;95.50;;;;;;1989415;28;20321;-79
2021/12/13 04:29:26;;;;;;;5.25;2.95;;;16.30;95.60;;;;;;1989523;28;20253;-79
2021/12/13 04:30:40;;;;;;;6.85;3.25;;;16.40;95.70;;;;;;1990323;28;20159;-80
2021/12/13 04:31:39;;;;;;;5.30;3.25;;;16.40;95.80;;;;;;1990145;28;20245;-79
2021/12/13 04:32:44;;;;;;;4.40;3.00;;;16.40;95.90;;;;;;1990118;28;20175;-79
2021/12/13 04:33:49;;;;;;;4.80;2.60;;;16.50;95.90;;;;;;1989613;28;20218;-80
2021/12/13 04:34:53;;;;;;;5.40;3.30;;;16.30;95.90;;;;;;1989582;28;20163;-79
2021/12/13 04:36:01;;;;;;;4.30;2.92;;;16.30;96.10;;;;;;1990169;28;20321;-80
2021/12/13 04:37:02;;;;;;;4.05;2.75;;;;;;;;;;1989523;28;20178;-80
2021/12/13 04:38:03;;;;;;;6.68;3.33;;;;;;;;;;1989693;28;20171;-80
2021/12/13 04:39:06;;;;;;;4.15;3.00;;;;;;;;;;1990122;28;20565;-80
2021/12/13 04:40:08;;;;;;;4.15;2.40;;;;;;;;;;1990206;28;20163;-80
2021/12/13 04:41:07;;;;;;;5.18;2.85;;;;;;;;;;1989865;28;20175;-79
2021/12/13 04:42:11;;;;;;;5.23;3.30;;;;;;;;;;1990093;28;20178;-79
2021/12/13 04:43:15;;;;;;;5.30;3.00;;;;;;;;;;1990281;28;20745;-80
2021/12/13 04:44:19;;;;;;;6.13;3.20;;;;;;;;;;1990146;28;20206;-79
2021/12/13 04:45:20;;;;;;;7.35;3.40;;;;;;;;;;1990172;28;20170;-79
2021/12/13 04:46:20;;;;;;;4.13;2.53;;;;;;;;;;1989451;28;20558;-80
2021/12/13 04:47:27;;;;;;;6.07;3.10;;;;;;;;;;1989593;28;20250;-79
2021/12/13 04:48:29;;;;;;;5.32;2.80;;;;;;;;;;1989373;28;20277;-80
2021/12/13 04:49:28;;;;;;;4.93;3.10;;;;;;;;;;1989420;28;20264;-79
2021/12/13 04:50:32;;;;;;;5.18;3.10;;;;;;;;;;1989662;28;20213;-80
2021/12/13 04:51:38;;;;;;;4.13;2.97;;;;;;;;;;1990242;28;20237;-79
2021/12/13 04:52:37;;;;;;;5.07;2.90;;;;;;;;;;1989584;28;20179;-80
2021/12/13 04:53:38;;;;;;;3.85;2.75;;;;;;;;;;1989518;28;20210;-79
2021/12/13 04:54:39;;;;;;;5.63;3.13;;;;;;;;;;1990237;28;20167;-79
2021/12/13 04:55:42;;;;;;;3.72;2.80;;;;;;;;;;1989590;28;20182;-79
2021/12/13 04:56:42;;;;;;;3.47;2.42;;;;;;;;;;1990179;28;20192;-79
2021/12/13 04:57:41;;;;;;;5.60;3.05;;;;;;;;;;1989333;28;20232;-80
2021/12/13 04:58:42;;;;;;;4.88;2.60;;;;;;;;;;1989441;28;20209;-80
2021/12/13 04:59:41;;;;;;;5.25;2.85;;;;;;;;;;1990151;28;20225;-79
2021/12/13 05:00:45;;;;;;;6.35;3.20;;;;;;;;;;1990318;28;20643;-80
2021/12/13 05:01:46;;;;;;;6.43;3.50;;;;;;;;;;1990264;28;20569;-79
2021/12/13 05:02:47;;;;;;;3.88;2.60;;;;;;;;;;1990362;28;20174;-80
2021/12/13 05:03:49;;;;;;;4.60;2.90;;;;;;;;;;1990366;28;20213;-79
2021/12/13 05:04:58;;;;;;;4.82;2.78;;;;;;;;;;1990097;28;20166;-79
2021/12/13 05:06:05;;;;;;;5.45;2.78;;;;;;;;;;1990093;28;20174;-79
2021/12/13 05:07:05;;;;;;;6.00;2.88;;;;;;;;;;1990145;28;20240;-79
2021/12/13 05:08:06;;;;;;;6.60;3.45;;;;;;;;;;1990001;28;20185;-79
2021/12/13 05:09:07;;;;;;;5.55;3.38;;;;;;;;;;1990236;28;20175;-78
2021/12/13 05:10:06;;;;;;;3.60;3.00;;;;;;;;;;1989428;28;20249;-80
2021/12/13 05:11:07;;;;;;;4.03;2.85;;;;;;;;;;1989527;28;20185;-80
2021/12/13 05:12:10;;;;;;;5.93;3.20;;;;;;;;;;1997067;28;20675;-79
2021/12/13 05:13:13;;;;;;;8.75;3.88;;;;;;;;;;1997518;28;20181;-78
2021/12/13 05:14:13;;;;;;;4.88;3.30;;;;;;;;;;1989298;28;20186;-79
2021/12/13 05:15:13;;;;;;;4.40;2.65;;;;;;;;;;1989527;28;20259;-79
2021/12/13 05:16:12;;;;;;;5.18;2.95;;;;;;;;;;1989944;28;20197;-79
2021/12/13 05:17:23;;;;;;;5.28;3.72;;;;;;;;;;1989451;28;20214;-79
2021/12/13 05:18:24;;;;;;;7.20;3.42;;;;;;;;;;1989662;28;20166;-78
2021/12/13 05:19:28;;;;;;;7.68;3.78;;;;;;;;;;1990263;28;20206;-78
2021/12/13 05:20:30;;;;;;;4.38;2.90;;;;;;;;;;1990002;28;20266;-79
2021/12/13 05:21:36;;;;;;;4.80;3.38;;;;;;;;;;1990658;28;20177;-79
2021/12/13 05:22:44;;;;;;;5.55;3.20;;;;;;;;;;1990274;28;20155;-79
2021/12/13 05:23:52;;;;;;;4.93;3.17;;;;;;;;;;1989710;28;20182;-79
2021/12/13 05:24:55;;;;;;;6.68;2.80;;;;;;;;;;1990333;28;20187;-79
2021/12/13 05:25:56;;;;;;;6.50;3.65;;;;;;;;;;1990310;28;20185;-80
2021/12/13 05:26:57;;;;;;;5.68;2.97;;;;;;;;;;1990418;28;20679;-79
2021/12/13 05:27:58;;;;;;;4.45;3.10;;;;;;;;;;1990819;28;20175;-79
2021/12/13 05:28:57;;;;;;;5.80;3.75;;;;;;;;;;1990178;28;20221;-79
2021/12/13 05:30:14;;;;;;;5.32;3.15;;;;;;;;;;1989907;28;20641;-79
2021/12/13 05:31:18;;;;;;;5.63;4.07;;;;;;;;;;1990139;28;20704;-80
2021/12/13 05:32:26;;;;;;;4.93;3.00;;;;;;;;;;1990461;28;20258;-80
2021/12/13 05:33:27;;;;;;;4.30;3.10;;;;;;;;;;1990329;28;20178;-79
2021/12/13 05:34:34;;;;;;;4.95;3.45;;;;;;;;;;1990145;28;20245;-81
2021/12/13 05:35:35;;;;;;;5.82;2.97;;;;;;;;;;1989380;28;20178;-80
2021/12/13 05:36:36;;;;;;;3.85;2.70;;;;;;;;;;1989690;28;20186;-80
2021/12/13 05:37:39;;;;;;;4.45;2.85;;;;;;;;;;1990099;28;20670;-81
2021/12/13 05:38:41;;;;;;;4.50;2.53;;;;;;;;;;1989312;28;20194;-78
2021/12/13 05:39:54;;;;;;;5.30;3.20;;;;;;;;;;1990002;28;20178;-82
2021/12/13 05:40:53;;;;;;;7.32;3.05;;;;;;;;;;1991156;28;20242;-79
2021/12/13 05:41:54;;;;;;;6.22;3.83;;;;;;;;;;1991552;28;20203;-80
2021/12/13 05:42:55;;;;;;;6.35;3.22;;;;;;;;;;1991986;28;20201;-78
2021/12/13 05:43:59;;;;;;;4.00;2.55;;;;;;;;;;1992397;28;20183;-79
2021/12/13 05:44:58;;;;;;;5.32;3.00;;;;;;;;;;1992602;28;20583;-79
2021/12/13 05:45:59;;;;;;;7.60;3.45;;;;;;;;;;1991163;28;20526;-80
2021/12/13 05:47:00;;;;;;;5.25;3.00;;;;;;;;;;1992120;28;20178;-80
2021/12/13 05:48:01;;;;;;;6.35;3.22;;;;;;;;;;1993169;28;20171;-79
2021/12/13 05:49:01;;;;;;;6.25;3.50;;;;;;;;;;1992539;28;20184;-80
2021/12/13 05:50:01;;;;;;;6.82;3.13;;;;;;;;;;1993190;28;20177;-79
2021/12/13 05:51:00;;;;;;;3.72;2.70;;;;;;;;;;1992189;28;20171;-79
2021/12/13 05:52:09;;;;;;;5.32;3.35;;;;;;;;;;1991984;28;20636;-81
2021/12/13 05:53:28;;;;;;;5.40;3.08;;;;;;;;;;1992828;28;20250;-80
2021/12/13 05:54:28;;;;;;;5.10;3.00;;;;;;;;;;1990355;28;20217;-79
2021/12/13 05:55:28;;;;;;;6.32;2.72;;;;;;;;;;1995763;28;20171;-78
2021/12/13 05:56:29;;;;;;;4.47;2.72;;;;;;;;;;1993403;28;20190;-79
2021/12/13 05:57:31;;;;;;;4.60;2.70;;;;;;;;;;1993964;28;20214;-79
2021/12/13 05:58:42;;;;;;;5.57;3.53;;;;;;;;;;1989543;28;20217;-81
2021/12/13 05:59:55;;;;;;;3.55;2.90;;;;;;;;;;1989895;28;20162;-81
2021/12/13 06:00:54;;;;;;;4.15;2.90;;;;;;;;;;1989283;28;20592;-80
2021/12/13 06:02:02;;;;;;;4.10;2.83;;;;;;;;;;1989239;28;20189;-80
2021/12/13 06:03:27;;;;;;;4.85;2.78;;;;;;;;;;1988943;28;20193;-79
2021/12/13 06:04:45;;;;;;;5.07;2.90;;;;;;;;;;1988209;28;20657;-79
2021/12/13 06:05:48;;;;;;;4.82;3.28;;;;;;;;;;1989759;28;20202;-79
2021/12/13 06:06:49;;;;;;;5.20;2.88;;;;;;;;;;1988763;28;20532;-78
2021/12/13 06:07:56;;;;;;;4.95;3.00;;;;;;;;;;1988451;28;20210;-79
2021/12/13 06:08:56;;;;;;;5.05;2.67;;;;;;;;;;1989625;28;20273;-78
2021/12/13 06:10:07;;;;;;;4.78;2.80;;;;;;;;;;1989640;28;20653;-80
2021/12/13 06:11:11;;;;;;;8.00;2.50;;;;;;;;;;1989590;28;20179;-80
2021/12/13 06:12:12;;;;;;;4.78;2.78;;;;;;;;;;1988799;28;20249;-79
2021/12/13 06:13:14;;;;;;;5.75;3.00;;;;;;;;;;1988949;28;20182;-79
2021/12/13 06:14:14;;;;;;;5.55;3.05;;;;;;;;;;1989616;28;20167;-80
2021/12/13 06:15:16;;;;;;;4.88;2.65;;;;;;;;;;1989886;28;20250;-80
2021/12/13 06:16:19;;;;;;;7.10;3.40;;;;;;;;;;1989526;28;20194;-80
2021/12/13 06:17:21;;;;;;;4.15;2.45;;;;;;;;;;1989627;28;20192;-79
2021/12/13 06:18:24;;;;;;;3.13;2.50;;;;;;;;;;1988870;28;20178;-79
2021/12/13 06:19:34;;;;;;;4.65;3.00;;;;;;;;;;1988907;28;20290;-79
2021/12/13 06:20:38;;;;;;;5.82;3.28;;;;;;;;;;1990140;28;20172;-78
2021/12/13 06:21:45;;;;;;;4.40;3.03;;;;;;;;;;1991091;28;20175;-78
2021/12/13 06:22:44;;;;;;;3.85;2.40;;;;;;;;;;1989278;28;20226;-78
2021/12/13 06:23:47;;;;;;;5.28;3.28;;;;;;;;;;1990235;28;20174;-78